HKTW weather

Tawi airfield
Tawi, Western Province, Kenya

Public forecast

Using degrees Celsius for public forecast. Weather courtesy of forecast.io.

METAR (pilot weather report)

Closest report is Makindu Airport, 35.8 nm (66.2 km) NE. Retrieved UTC (0 seconds ago):

TAF (pilot weather forecast)

Forecast is more than 12 hours old.

Closest forecast is Kilimanjaro International Airport, 47.0 nm (87.1 km) SSW. Retrieved 2019/01/18 06:00 UTC (16 hours ago):

TAF HTKJ 180500Z 1806/1906 09010KT 9999 BKN024 BECMG 1808/1810 FEW030CB SCT032